createdAt,value
2023-05-13T00:00:26.056Z,5.53
2023-05-13T00:02:52.712Z,6.10
2023-05-13T00:05:19.580Z,5.40
2023-05-13T00:07:46.168Z,5.93
2023-05-13T00:10:12.804Z,5.35
2023-05-13T00:12:39.558Z,5.30
2023-05-13T00:15:06.580Z,5.60
2023-05-13T00:17:33.308Z,5.95
2023-05-13T00:20:00.016Z,6.10
2023-05-13T00:22:26.937Z,6.88
2023-05-13T00:24:53.564Z,5.63
2023-05-13T00:27:21.543Z,5.63
2023-05-13T00:29:48.153Z,6.00
2023-05-13T00:32:15.632Z,5.65
2023-05-13T00:34:42.230Z,5.45
2023-05-13T00:37:10.440Z,6.10
2023-05-13T00:39:37.117Z,5.75
2023-05-13T00:42:04.994Z,6.00
2023-05-13T00:44:31.706Z,6.30
2023-05-13T00:46:58.345Z,5.47
2023-05-13T00:49:25.119Z,6.30
2023-05-13T00:51:55.112Z,5.78
2023-05-13T00:54:22.245Z,5.85
2023-05-13T00:56:48.979Z,6.45
2023-05-13T00:59:15.725Z,6.60
2023-05-13T01:01:48.252Z,5.72
2023-05-13T01:04:33.376Z,6.63
2023-05-13T01:07:12.754Z,6.65
2023-05-13T01:09:55.238Z,6.30
2023-05-13T01:12:30.702Z,6.00
2023-05-13T01:15:11.182Z,6.38
2023-05-13T01:17:41.470Z,7.43
2023-05-13T01:20:08.609Z,6.43
2023-05-13T01:22:35.231Z,6.60
2023-05-13T01:25:02.137Z,6.75
2023-05-13T01:27:28.901Z,6.53
2023-05-13T01:29:56.187Z,7.18
2023-05-13T01:32:23.703Z,7.13
2023-05-13T01:34:52.508Z,6.68
2023-05-13T01:37:20.983Z,7.05
2023-05-13T01:39:48.034Z,6.97
2023-05-13T01:42:14.912Z,6.95
2023-05-13T01:44:41.623Z,7.07
2023-05-13T01:47:08.311Z,7.13
2023-05-13T01:49:34.975Z,7.43
2023-05-13T01:52:01.564Z,7.38
2023-05-13T01:54:28.251Z,6.80
2023-05-13T01:56:54.972Z,7.53
2023-05-13T01:59:22.084Z,7.20
2023-05-13T02:01:48.708Z,7.20
2023-05-13T02:04:15.757Z,7.93
2023-05-13T02:06:42.370Z,7.35
2023-05-13T02:09:09.044Z,7.03
2023-05-13T02:11:36.645Z,7.65
2023-05-13T02:14:03.653Z,7.55
2023-05-13T02:16:31.314Z,7.53
2023-05-13T02:18:58.053Z,8.00
2023-05-13T02:21:24.860Z,7.70
2023-05-13T02:23:51.466Z,7.18
2023-05-13T02:26:18.327Z,7.20
2023-05-13T02:28:44.910Z,8.10
2023-05-13T02:31:11.634Z,7.30
2023-05-13T02:33:38.264Z,7.85
2023-05-13T02:36:05.084Z,7.28
2023-05-13T02:38:31.930Z,7.75
2023-05-13T02:40:58.535Z,7.65
2023-05-13T02:43:27.520Z,7.78
2023-05-13T02:45:54.406Z,7.80
2023-05-13T02:48:21.198Z,8.45
2023-05-13T02:50:47.747Z,8.07
2023-05-13T02:53:14.293Z,7.78
2023-05-13T02:55:41.066Z,8.32
2023-05-13T02:58:09.443Z,8.25
2023-05-13T03:00:37.816Z,8.05
2023-05-13T03:03:04.682Z,9.02
2023-05-13T03:05:31.332Z,7.80
2023-05-13T03:07:58.376Z,8.48
2023-05-13T03:10:25.082Z,8.77
2023-05-13T03:12:51.699Z,8.55
2023-05-13T03:15:18.287Z,9.70
2023-05-13T03:17:45.022Z,8.88
2023-05-13T03:20:11.973Z,8.75
2023-05-13T03:22:41.474Z,9.27
2023-05-13T03:25:08.340Z,8.90
2023-05-13T03:27:34.940Z,9.55
2023-05-13T03:30:01.812Z,10.05
2023-05-13T03:32:32.031Z,9.50
2023-05-13T03:35:00.846Z,9.95
2023-05-13T03:37:27.752Z,9.50
2023-05-13T03:39:54.592Z,9.98
2023-05-13T03:42:21.443Z,9.85
2023-05-13T03:44:48.056Z,10.50
2023-05-13T03:47:15.017Z,10.40
2023-05-13T03:49:41.580Z,9.82
2023-05-13T03:52:08.265Z,10.10
2023-05-13T03:54:35.756Z,10.60
2023-05-13T03:57:02.483Z,9.98
2023-05-13T03:59:29.096Z,9.65
2023-05-13T04:01:55.978Z,9.85
2023-05-13T04:04:22.684Z,9.60
2023-05-13T04:06:49.388Z,9.07
2023-05-13T04:09:16.156Z,10.00
2023-05-13T04:11:42.827Z,9.43
2023-05-13T04:14:09.877Z,9.35
2023-05-13T04:16:36.603Z,10.25
2023-05-13T04:19:03.359Z,10.05
2023-05-13T04:21:29.978Z,9.02
2023-05-13T04:23:56.912Z,9.45
2023-05-13T04:26:23.543Z,9.32
2023-05-13T04:28:50.134Z,8.57
2023-05-13T04:31:17.070Z,9.23
2023-05-13T04:33:43.844Z,8.60
2023-05-13T04:36:10.394Z,8.40
2023-05-13T04:38:37.211Z,8.20
2023-05-13T04:41:04.019Z,8.38
2023-05-13T04:43:30.660Z,7.38
2023-05-13T04:45:57.320Z,7.82
2023-05-13T04:48:23.998Z,7.43
2023-05-13T04:50:51.095Z,7.88
2023-05-13T04:53:18.178Z,7.07
2023-05-13T04:55:47.410Z,6.97
2023-05-13T04:58:14.231Z,6.90
2023-05-13T05:00:40.866Z,7.13
2023-05-13T05:03:07.553Z,6.65
2023-05-13T05:05:34.296Z,7.32
2023-05-13T05:08:01.040Z,6.63
2023-05-13T05:10:27.758Z,6.55
2023-05-13T05:12:54.364Z,6.78
2023-05-13T05:15:21.073Z,7.25
2023-05-13T05:17:47.872Z,6.25
2023-05-13T05:20:14.608Z,6.22
2023-05-13T05:22:42.335Z,6.20
2023-05-13T05:25:10.174Z,6.45
2023-05-13T05:27:36.749Z,6.20
2023-05-13T05:30:03.853Z,6.90
2023-05-13T05:32:30.634Z,6.30
2023-05-13T05:34:57.345Z,5.53
2023-05-13T05:37:24.282Z,6.40
2023-05-13T05:39:50.918Z,6.20
2023-05-13T05:42:17.558Z,6.82
2023-05-13T05:44:44.148Z,6.25
2023-05-13T05:47:10.940Z,6.80
2023-05-13T05:49:37.757Z,5.93
2023-05-13T05:52:05.348Z,6.28
2023-05-13T05:54:31.906Z,6.22
2023-05-13T05:56:58.511Z,6.35
2023-05-13T05:59:25.452Z,6.70
2023-05-13T06:01:52.043Z,6.20
2023-05-13T06:04:18.775Z,5.45
2023-05-13T06:06:45.650Z,5.65
2023-05-13T06:09:12.353Z,5.28
2023-05-13T06:11:38.978Z,5.30
2023-05-13T06:14:06.449Z,5.35
2023-05-13T06:16:33.195Z,5.22
2023-05-13T06:18:59.962Z,5.88
2023-05-13T06:21:26.822Z,5.07
2023-05-13T06:23:53.394Z,6.47
2023-05-13T06:26:20.172Z,5.10
2023-05-13T06:28:46.841Z,4.80
2023-05-13T06:31:13.503Z,4.68
2023-05-13T06:33:40.076Z,5.00
2023-05-13T06:36:07.143Z,5.05
2023-05-13T06:38:34.654Z,4.80
2023-05-13T06:41:01.377Z,4.82
2023-05-13T06:43:28.033Z,4.53
2023-05-13T06:45:54.644Z,5.40
2023-05-13T06:48:21.212Z,5.13
2023-05-13T06:50:49.796Z,4.72
2023-05-13T06:53:16.477Z,4.18
2023-05-13T06:55:43.241Z,4.28
2023-05-13T06:58:10.549Z,4.57
2023-05-13T07:00:41.118Z,4.20
2023-05-13T07:03:08.500Z,4.30
2023-05-13T07:05:35.991Z,4.35
2023-05-13T07:08:06.802Z,4.65
2023-05-13T07:10:34.294Z,3.90
2023-05-13T07:13:04.489Z,4.07
2023-05-13T07:15:31.239Z,4.15
2023-05-13T07:17:57.890Z,4.38
2023-05-13T07:20:26.522Z,4.20
2023-05-13T07:22:53.333Z,4.13
2023-05-13T07:25:19.922Z,4.18
2023-05-13T07:27:47.882Z,4.32
2023-05-13T07:30:14.686Z,4.15
2023-05-13T07:32:41.485Z,4.07
2023-05-13T07:35:09.355Z,4.05
2023-05-13T07:37:37.110Z,4.00
2023-05-13T07:40:05.929Z,4.35
2023-05-13T07:42:33.185Z,4.47
2023-05-13T07:45:00.104Z,4.20
2023-05-13T07:47:29.160Z,4.40
2023-05-13T07:49:56.050Z,4.28
2023-05-13T07:52:22.752Z,4.38
2023-05-13T07:54:49.468Z,4.50
2023-05-13T07:57:16.180Z,4.72
2023-05-13T07:59:44.666Z,4.30
2023-05-13T08:02:12.624Z,4.55
2023-05-13T08:04:39.425Z,4.88
2023-05-13T08:07:06.180Z,4.57
2023-05-13T08:09:32.773Z,4.75
2023-05-13T08:11:59.403Z,4.47
2023-05-13T08:14:26.031Z,4.35
2023-05-13T08:16:52.986Z,4.20
2023-05-13T08:19:20.271Z,4.80
2023-05-13T08:21:46.898Z,4.70
2023-05-13T08:24:13.504Z,4.93
2023-05-13T08:26:40.232Z,4.45
2023-05-13T08:29:07.236Z,4.60
2023-05-13T08:31:33.941Z,4.50
2023-05-13T08:34:00.575Z,4.82
2023-05-13T08:36:27.252Z,4.50
2023-05-13T08:38:53.865Z,4.45
2023-05-13T08:41:22.768Z,4.30
2023-05-13T08:43:49.954Z,4.20
2023-05-13T08:46:17.133Z,4.05
2023-05-13T08:48:44.723Z,4.63
2023-05-13T08:51:12.577Z,4.82
2023-05-13T08:53:40.321Z,4.80
2023-05-13T08:56:08.524Z,4.05
2023-05-13T08:58:35.276Z,3.90
2023-05-13T09:01:03.403Z,4.68
2023-05-13T09:03:31.588Z,4.38
2023-05-13T09:06:03.359Z,4.70
2023-05-13T09:08:30.289Z,4.30
2023-05-13T09:10:57.938Z,4.07
2023-05-13T09:13:24.525Z,3.80
2023-05-13T09:15:51.878Z,4.45
2023-05-13T09:18:19.384Z,3.45
2023-05-13T09:20:46.431Z,3.88
2023-05-13T09:23:13.892Z,3.10
2023-05-13T09:25:40.706Z,3.22
2023-05-13T09:28:08.393Z,3.00
2023-05-13T09:30:40.172Z,3.15
2023-05-13T09:33:10.924Z,3.72
2023-05-13T09:35:39.736Z,3.63
2023-05-13T09:38:34.811Z,3.60
2023-05-13T09:41:03.235Z,3.50
2023-05-13T09:43:33.428Z,3.17
2023-05-13T09:46:06.565Z,3.20
2023-05-13T09:48:34.332Z,3.30
2023-05-13T09:51:01.153Z,3.83
2023-05-13T09:53:28.541Z,4.10
2023-05-13T09:55:57.425Z,3.80
2023-05-13T09:58:25.795Z,4.50
2023-05-13T10:00:52.818Z,4.20
2023-05-13T10:03:19.729Z,4.70
2023-05-13T10:05:48.815Z,4.18
2023-05-13T10:08:17.565Z,4.57
2023-05-13T10:10:46.209Z,4.07
2023-05-13T10:13:16.005Z,4.00
2023-05-13T10:15:53.551Z,5.05
2023-05-13T10:18:21.675Z,4.53
2023-05-13T10:20:53.758Z,4.22
2023-05-13T10:23:22.686Z,3.95
2023-05-13T10:25:50.858Z,4.07
2023-05-13T10:28:18.008Z,4.22
2023-05-13T10:30:45.079Z,4.53
2023-05-13T10:33:12.231Z,4.57
2023-05-13T10:35:43.313Z,4.03
2023-05-13T10:38:15.707Z,3.38
2023-05-13T10:40:42.379Z,4.15
2023-05-13T10:43:15.341Z,4.40
2023-05-13T10:45:50.345Z,4.18
2023-05-13T10:48:18.607Z,4.18
2023-05-13T10:51:01.696Z,4.65
2023-05-13T10:53:30.654Z,4.25
2023-05-13T10:56:00.084Z,4.65
2023-05-13T10:58:31.308Z,3.72
2023-05-13T11:01:14.636Z,4.15
2023-05-13T11:03:42.043Z,4.32
2023-05-13T11:06:19.551Z,3.70
2023-05-13T11:08:48.406Z,3.85
2023-05-13T11:11:21.367Z,3.95
2023-05-13T11:14:08.647Z,3.80
2023-05-13T11:16:36.326Z,4.22
2023-05-13T11:19:04.600Z,3.67
2023-05-13T11:21:41.148Z,3.53
2023-05-13T11:24:08.227Z,3.25
2023-05-13T11:26:46.559Z,4.00
2023-05-13T11:29:13.700Z,3.33
2023-05-13T11:31:49.968Z,3.53
2023-05-13T11:34:18.451Z,3.78
2023-05-13T11:36:47.777Z,3.10
2023-05-13T11:39:17.006Z,3.22
2023-05-13T11:41:51.161Z,3.63
2023-05-13T11:44:19.948Z,3.80
2023-05-13T11:46:55.625Z,3.65
2023-05-13T11:49:46.748Z,2.95
2023-05-13T11:52:18.750Z,3.35
2023-05-13T11:54:57.463Z,2.80
2023-05-13T11:57:25.473Z,2.92
2023-05-13T11:59:59.519Z,2.80
2023-05-13T12:02:28.417Z,2.63
2023-05-13T12:04:55.597Z,2.75
2023-05-13T12:07:24.698Z,2.63
2023-05-13T12:09:52.370Z,3.00
2023-05-13T12:12:20.298Z,3.05
2023-05-13T12:14:50.274Z,2.67
2023-05-13T12:17:18.125Z,2.78
2023-05-13T12:20:12.811Z,2.63
2023-05-13T12:22:42.523Z,3.10
2023-05-13T12:25:45.280Z,3.90
2023-05-13T12:28:19.827Z,4.28
2023-05-13T12:31:01.465Z,3.22
2023-05-13T12:33:32.290Z,3.42
2023-05-13T12:36:35.854Z,3.50
2023-05-13T12:39:07.057Z,3.22
2023-05-13T12:41:35.693Z,3.70
2023-05-13T12:44:10.239Z,3.05
2023-05-13T12:46:37.728Z,3.50
2023-05-13T12:49:05.980Z,4.15
2023-05-13T12:51:35.690Z,3.70
2023-05-13T12:54:02.425Z,3.20
2023-05-13T12:56:29.081Z,3.08
2023-05-13T12:58:55.963Z,3.13
2023-05-13T13:01:23.061Z,3.65
2023-05-13T13:03:50.180Z,3.60
2023-05-13T13:06:18.409Z,3.25
2023-05-13T13:08:45.107Z,3.30
2023-05-13T13:11:18.274Z,3.42
2023-05-13T13:13:45.911Z,3.17
2023-05-13T13:16:13.388Z,3.38
2023-05-13T13:18:40.785Z,3.42
2023-05-13T13:21:07.731Z,3.80
2023-05-13T13:23:34.561Z,3.33
2023-05-13T13:26:02.027Z,3.05
2023-05-13T13:28:29.102Z,3.25
2023-05-13T13:30:55.751Z,3.35
2023-05-13T13:33:22.466Z,2.80
2023-05-13T13:35:49.503Z,2.80
2023-05-13T13:38:16.273Z,3.00
2023-05-13T13:40:42.920Z,3.17
2023-05-13T13:43:09.641Z,3.20
2023-05-13T13:45:36.665Z,3.22
2023-05-13T13:48:03.516Z,3.30
2023-05-13T13:50:30.294Z,3.33
2023-05-13T13:52:57.020Z,3.22
2023-05-13T13:55:24.287Z,3.30
2023-05-13T13:57:52.154Z,3.63
2023-05-13T14:00:19.567Z,3.33
2023-05-13T14:02:46.541Z,3.72
2023-05-13T14:05:13.725Z,3.70
2023-05-13T14:07:40.506Z,3.70
2023-05-13T14:10:08.551Z,3.38
2023-05-13T14:12:36.408Z,2.92
2023-05-13T14:15:03.302Z,3.05
2023-05-13T14:17:30.024Z,3.05
2023-05-13T14:19:56.654Z,3.30
2023-05-13T14:22:24.207Z,2.83
2023-05-13T14:24:52.244Z,3.60
2023-05-13T14:27:19.578Z,3.53
2023-05-13T14:29:47.781Z,3.42
2023-05-13T14:32:15.025Z,3.20
2023-05-13T14:34:41.921Z,3.50
2023-05-13T14:37:09.056Z,3.35
2023-05-13T14:39:35.908Z,3.03
2023-05-13T14:42:03.702Z,3.45
2023-05-13T14:44:30.563Z,4.07
2023-05-13T14:46:57.308Z,3.20
2023-05-13T14:49:24.116Z,3.20
2023-05-13T14:51:50.859Z,2.85
2023-05-13T14:54:17.857Z,2.90
2023-05-13T14:56:44.928Z,3.28
2023-05-13T14:59:11.644Z,3.00
2023-05-13T15:01:38.564Z,2.97
2023-05-13T15:04:05.620Z,3.00
2023-05-13T15:06:32.721Z,3.30
2023-05-13T15:08:59.495Z,2.90
2023-05-13T15:11:28.180Z,2.75
2023-05-13T15:13:55.566Z,2.85
2023-05-13T15:16:22.706Z,3.10
2023-05-13T15:18:50.352Z,3.05
2023-05-13T15:21:17.566Z,2.90
2023-05-13T15:23:44.339Z,3.42
2023-05-13T15:26:11.021Z,2.95
2023-05-13T15:28:37.953Z,2.63
2023-05-13T15:31:05.491Z,2.92
2023-05-13T15:33:32.673Z,2.90
2023-05-13T15:36:00.057Z,3.50
2023-05-13T15:38:27.560Z,2.78
2023-05-13T15:40:54.329Z,2.60
2023-05-13T15:43:21.166Z,2.70
2023-05-13T15:45:49.754Z,3.00
2023-05-13T15:48:17.505Z,2.95
2023-05-13T15:50:44.391Z,2.83
2023-05-13T15:53:11.157Z,3.10
2023-05-13T15:55:39.366Z,3.75
2023-05-13T15:58:07.080Z,3.28
2023-05-13T16:00:34.143Z,3.58
2023-05-13T16:03:01.743Z,3.72
2023-05-13T16:05:28.552Z,3.63
2023-05-13T16:07:57.147Z,3.47
2023-05-13T16:10:24.042Z,3.90
2023-05-13T16:12:51.672Z,3.92
2023-05-13T16:15:18.379Z,3.58
2023-05-13T16:17:45.087Z,4.03
2023-05-13T16:20:13.567Z,3.70
2023-05-13T16:22:40.424Z,4.10
2023-05-13T16:25:09.027Z,3.80
2023-05-13T16:27:36.880Z,3.88
2023-05-13T16:30:06.242Z,3.33
2023-05-13T16:32:34.885Z,3.67
2023-05-13T16:35:02.126Z,3.63
2023-05-13T16:37:29.237Z,3.95
2023-05-13T16:39:55.804Z,3.90
2023-05-13T16:42:22.644Z,3.45
2023-05-13T16:44:49.393Z,3.63
2023-05-13T16:47:15.995Z,3.83
2023-05-13T16:49:42.785Z,3.85
2023-05-13T16:52:09.488Z,3.33
2023-05-13T16:54:36.172Z,3.05
2023-05-13T16:57:02.835Z,3.38
2023-05-13T16:59:29.578Z,4.07
2023-05-13T17:01:56.354Z,3.70
2023-05-13T17:04:23.031Z,3.72
2023-05-13T17:06:49.765Z,3.92
2023-05-13T17:09:16.464Z,3.72
2023-05-13T17:11:43.308Z,3.70
2023-05-13T17:14:10.218Z,4.15
2023-05-13T17:16:37.112Z,4.00
2023-05-13T17:19:04.165Z,3.80
2023-05-13T17:21:30.894Z,4.25
2023-05-13T17:23:57.498Z,3.45
2023-05-13T17:26:24.106Z,5.07
2023-05-13T17:28:51.199Z,4.38
2023-05-13T17:31:17.980Z,4.22
2023-05-13T17:33:44.637Z,4.35
2023-05-13T17:36:11.471Z,4.60
2023-05-13T17:38:38.160Z,4.72
2023-05-13T17:41:05.036Z,5.50
2023-05-13T17:43:31.643Z,5.80
2023-05-13T17:45:58.453Z,6.05
2023-05-13T17:48:26.650Z,6.30
2023-05-13T17:50:53.550Z,6.15
2023-05-13T17:53:20.796Z,6.28
2023-05-13T17:55:50.680Z,6.93
2023-05-13T17:58:17.413Z,6.70
2023-05-13T18:00:44.021Z,7.88
2023-05-13T18:03:10.927Z,6.50
2023-05-13T18:05:37.788Z,5.97
2023-05-13T18:08:04.657Z,6.63
2023-05-13T18:10:31.534Z,6.65
2023-05-13T18:12:58.143Z,6.47
2023-05-13T18:15:25.733Z,5.95
2023-05-13T18:17:52.477Z,6.43
2023-05-13T18:20:19.426Z,7.55
2023-05-13T18:22:46.110Z,6.68
2023-05-13T18:25:13.225Z,6.80
2023-05-13T18:27:39.936Z,7.68
2023-05-13T18:30:07.418Z,7.20
2023-05-13T18:32:34.146Z,7.10
2023-05-13T18:35:00.777Z,7.30
2023-05-13T18:37:27.375Z,7.22
2023-05-13T18:39:54.080Z,7.00
2023-05-13T18:42:21.303Z,7.30
2023-05-13T18:44:47.906Z,7.82
2023-05-13T18:47:14.481Z,7.63
2023-05-13T18:49:41.107Z,7.40
2023-05-13T18:52:07.933Z,6.85
2023-05-13T18:54:35.623Z,7.75
2023-05-13T18:57:02.236Z,7.78
2023-05-13T18:59:28.961Z,7.10
2023-05-13T19:01:56.155Z,7.13
2023-05-13T19:04:23.183Z,6.65
2023-05-13T19:06:50.227Z,6.93
2023-05-13T19:09:17.003Z,7.30
2023-05-13T19:11:44.226Z,6.93
2023-05-13T19:14:10.888Z,6.85
2023-05-13T19:16:38.056Z,7.53
2023-05-13T19:19:04.829Z,7.07
2023-05-13T19:21:31.664Z,7.10
2023-05-13T19:23:58.769Z,7.18
2023-05-13T19:26:25.639Z,7.57
2023-05-13T19:28:52.457Z,7.75
2023-05-13T19:31:19.122Z,7.32
2023-05-13T19:33:46.378Z,7.18
2023-05-13T19:36:13.201Z,8.18
2023-05-13T19:38:40.009Z,7.05
2023-05-13T19:41:06.729Z,8.02
2023-05-13T19:43:33.399Z,7.53
2023-05-13T19:46:00.107Z,8.10
2023-05-13T19:48:28.360Z,10.05
2023-05-13T19:50:57.905Z,7.63
2023-05-13T19:53:24.665Z,7.20
2023-05-13T19:55:51.324Z,7.47
2023-05-13T19:58:18.105Z,7.05
2023-05-13T20:00:45.279Z,7.68
2023-05-13T20:03:12.158Z,7.82
2023-05-13T20:05:40.928Z,7.40
2023-05-13T20:08:07.765Z,6.68
2023-05-13T20:10:37.224Z,8.68
2023-05-13T20:13:04.844Z,9.02
2023-05-13T20:15:32.007Z,7.32
2023-05-13T20:17:58.870Z,7.32
2023-05-13T20:20:25.757Z,7.82
2023-05-13T20:22:52.570Z,7.15
2023-05-13T20:25:19.461Z,7.35
2023-05-13T20:27:46.145Z,8.13
2023-05-13T20:30:13.394Z,7.93
2023-05-13T20:32:40.261Z,8.35
2023-05-13T20:35:07.744Z,7.93
2023-05-13T20:37:34.852Z,8.00
2023-05-13T20:40:02.383Z,9.43
2023-05-13T20:42:29.049Z,9.40
2023-05-13T20:44:55.967Z,8.93
2023-05-13T20:47:22.769Z,8.48
2023-05-13T20:49:49.489Z,8.70
2023-05-13T20:52:16.485Z,8.15
2023-05-13T20:54:43.149Z,9.50
2023-05-13T20:57:10.000Z,9.68
2023-05-13T20:59:37.418Z,8.05
2023-05-13T21:02:04.197Z,8.38
2023-05-13T21:04:31.109Z,8.98
2023-05-13T21:06:57.928Z,9.02
2023-05-13T21:09:24.578Z,8.73
2023-05-13T21:11:51.168Z,8.82
2023-05-13T21:14:17.821Z,7.82
2023-05-13T21:16:44.459Z,7.93
2023-05-13T21:19:31.432Z,7.55
2023-05-13T21:21:58.677Z,6.88
2023-05-13T21:24:25.407Z,7.68
2023-05-13T21:26:52.274Z,7.10
2023-05-13T21:29:19.187Z,7.22
2023-05-13T21:31:47.450Z,7.32
2023-05-13T21:34:14.242Z,6.88
2023-05-13T21:36:41.036Z,7.25
2023-05-13T21:39:08.088Z,6.70
2023-05-13T21:41:35.559Z,7.55
2023-05-13T21:44:02.220Z,6.72
2023-05-13T21:46:28.979Z,7.28
2023-05-13T21:48:55.921Z,7.45
2023-05-13T21:51:22.648Z,7.25
2023-05-13T21:53:49.302Z,7.50
2023-05-13T21:56:15.944Z,6.93
2023-05-13T21:58:42.665Z,8.02
2023-05-13T22:01:09.438Z,7.82
2023-05-13T22:03:36.125Z,7.15
2023-05-13T22:06:03.162Z,8.18
2023-05-13T22:08:30.293Z,7.25
2023-05-13T22:10:57.749Z,7.00
2023-05-13T22:13:25.671Z,7.35
2023-05-13T22:15:52.470Z,7.35
2023-05-13T22:18:19.365Z,7.97
2023-05-13T22:20:46.390Z,7.35
2023-05-13T22:23:13.059Z,7.85
2023-05-13T22:25:39.863Z,7.05
2023-05-13T22:28:06.638Z,7.53
2023-05-13T22:30:33.225Z,7.35
2023-05-13T22:32:59.852Z,7.38
2023-05-13T22:35:28.893Z,8.18
2023-05-13T22:37:55.570Z,7.63
2023-05-13T22:40:22.884Z,7.70
2023-05-13T22:42:49.672Z,8.43
2023-05-13T22:45:16.312Z,8.20
2023-05-13T22:47:42.912Z,8.30
2023-05-13T22:50:09.929Z,8.55
2023-05-13T22:52:36.526Z,7.82
2023-05-13T22:55:03.275Z,8.27
2023-05-13T22:57:29.901Z,8.40
2023-05-13T22:59:56.515Z,8.13
2023-05-13T23:02:23.700Z,8.27
2023-05-13T23:04:50.428Z,8.05
2023-05-13T23:07:17.049Z,8.60
2023-05-13T23:09:43.975Z,8.45
2023-05-13T23:12:10.698Z,7.82
2023-05-13T23:14:37.300Z,8.25
2023-05-13T23:17:04.081Z,7.82
2023-05-13T23:19:30.801Z,8.73
2023-05-13T23:21:57.679Z,8.50
2023-05-13T23:24:24.371Z,8.43
2023-05-13T23:26:51.074Z,8.85
2023-05-13T23:29:17.786Z,8.60
2023-05-13T23:31:44.613Z,7.95
2023-05-13T23:34:11.336Z,8.63
2023-05-13T23:36:37.938Z,9.25
2023-05-13T23:39:04.664Z,8.63
2023-05-13T23:41:31.257Z,9.18
2023-05-13T23:43:57.856Z,9.10
2023-05-13T23:46:24.651Z,9.13
2023-05-13T23:48:51.387Z,9.90
2023-05-13T23:51:18.089Z,8.63
2023-05-13T23:53:44.799Z,8.48
2023-05-13T23:56:11.403Z,9.32
2023-05-13T23:58:38.064Z,8.35
